Time;durP1;ratioP1;P1;durP2;ratioP2;P2;SDS_P1;SDS_P2;PMS_P1;PMS_P2;Temp;Humidity;BMP_temperature;BMP_pressure;BME280_temperature;BME280_humidity;BME280_pressure;Samples;Min_cycle;Max_cycle;Signal;HPM_P1;HPM_P2
2021/10/30 00:00:01;;;;;;;39.70;21.47;;;8.30;99.90;;;;;;4143901;28;20450;-75
2021/10/30 00:02:04;;;;;;;35.87;20.57;;;8.30;99.90;;;;;;4142451;28;20474;-75
2021/10/30 00:04:06;;;;;;;37.60;20.53;;;8.20;99.90;;;;;;4131229;28;20945;-75
2021/10/30 00:06:08;;;;;;;38.57;21.63;;;8.20;99.90;;;;;;4124183;28;20597;-75
2021/10/30 00:08:10;;;;;;;37.27;21.20;;;8.20;99.90;;;;;;4122469;28;21027;-74
2021/10/30 00:10:12;;;;;;;41.33;21.53;;;8.20;99.90;;;;;;4130212;28;20474;-75
2021/10/30 00:12:14;;;;;;;37.70;22.07;;;8.20;99.90;;;;;;4139977;28;20870;-75
2021/10/30 00:14:16;;;;;;;36.97;20.57;;;8.20;99.90;;;;;;4146505;28;20505;-75
2021/10/30 00:16:19;;;;;;;39.97;22.33;;;8.10;99.90;;;;;;4133209;28;20533;-76
2021/10/30 00:18:21;;;;;;;40.70;21.63;;;8.20;99.90;;;;;;4138535;28;20463;-76
2021/10/30 00:20:22;;;;;;;38.97;21.70;;;8.10;99.90;;;;;;4130498;28;20463;-76
2021/10/30 00:22:24;;;;;;;40.07;21.53;;;8.10;99.90;;;;;;4129877;28;20983;-76
2021/10/30 00:24:26;;;;;;;41.53;22.40;;;8.10;99.90;;;;;;4119978;28;20480;-75
2021/10/30 00:26:28;;;;;;;39.97;22.77;;;8.10;99.90;;;;;;4140483;28;20964;-75
2021/10/30 00:28:30;;;;;;;39.43;22.93;;;8.10;99.90;;;;;;4137422;28;20455;-76
2021/10/30 00:30:31;;;;;;;37.03;21.97;;;8.10;99.90;;;;;;4129434;28;21129;-75
2021/10/30 00:32:34;;;;;;;34.43;20.27;;;8.10;99.90;;;;;;4131301;28;20526;-75
2021/10/30 00:34:36;;;;;;;40.63;21.13;;;8.10;99.90;;;;;;4130809;28;20460;-76
2021/10/30 00:36:38;;;;;;;37.13;20.37;;;8.00;99.90;;;;;;4131227;28;20501;-75
2021/10/30 00:38:40;;;;;;;39.27;21.83;;;8.00;99.90;;;;;;4130426;28;20474;-76
2021/10/30 00:40:42;;;;;;;38.73;21.50;;;8.00;99.90;;;;;;4131247;28;20475;-75
2021/10/30 00:42:43;;;;;;;38.37;21.40;;;8.00;99.90;;;;;;4146749;28;20474;-76
2021/10/30 00:44:45;;;;;;;38.33;21.57;;;8.00;99.90;;;;;;4143642;28;20467;-76
2021/10/30 00:46:49;;;;;;;36.80;20.37;;;7.90;99.90;;;;;;4147125;28;20458;-76
2021/10/30 00:48:52;;;;;;;38.63;21.83;;;7.90;99.90;;;;;;4127437;28;20474;-75
2021/10/30 00:50:55;;;;;;;39.27;22.00;;;7.90;99.90;;;;;;4112968;28;20488;-75
2021/10/30 00:52:59;;;;;;;39.00;21.70;;;7.90;99.90;;;;;;4123861;28;20490;-76
2021/10/30 00:55:02;;;;;;;35.90;20.30;;;7.90;99.90;;;;;;4141761;28;20494;-75
2021/10/30 00:57:05;;;;;;;39.40;21.53;;;7.90;99.90;;;;;;4126393;28;20474;-75
2021/10/30 00:59:09;;;;;;;36.70;21.10;;;7.80;99.90;;;;;;4127843;28;20451;-75
2021/10/30 01:01:11;;;;;;;39.33;21.13;;;7.80;99.90;;;;;;4137413;28;20478;-75
2021/10/30 01:03:14;;;;;;;41.13;20.97;;;7.80;99.90;;;;;;4134113;28;20521;-76
2021/10/30 01:05:17;;;;;;;40.30;21.00;;;7.80;99.90;;;;;;4126569;28;20507;-74
2021/10/30 01:07:19;;;;;;;38.13;20.40;;;7.70;99.90;;;;;;4128602;28;20470;-77
2021/10/30 01:09:21;;;;;;;39.27;20.97;;;7.70;99.90;;;;;;4130239;28;20461;-74
2021/10/30 01:11:23;;;;;;;40.60;21.37;;;7.70;99.90;;;;;;4133394;28;20466;-74
2021/10/30 01:13:27;;;;;;;38.97;21.43;;;7.70;99.90;;;;;;4132830;28;20494;-75
2021/10/30 01:15:29;;;;;;;40.80;21.67;;;7.70;99.90;;;;;;4132641;28;20999;-75
2021/10/30 01:17:31;;;;;;;42.47;22.03;;;7.60;99.90;;;;;;4132851;28;20865;-74
2021/10/30 01:19:33;;;;;;;38.33;21.50;;;7.60;99.90;;;;;;4115517;28;20533;-73
2021/10/30 01:21:37;;;;;;;38.27;21.10;;;7.60;99.90;;;;;;4117389;28;20456;-73
2021/10/30 01:23:39;;;;;;;38.87;20.23;;;7.60;99.90;;;;;;4129793;28;20489;-73
2021/10/30 01:25:42;;;;;;;39.63;21.00;;;7.60;99.90;;;;;;4133220;28;20455;-73
2021/10/30 01:27:46;;;;;;;41.67;22.03;;;7.60;99.90;;;;;;4133817;28;20470;-74
2021/10/30 01:29:49;;;;;;;41.00;21.60;;;7.50;99.90;;;;;;4141933;28;20945;-75
2021/10/30 01:31:52;;;;;;;38.50;21.60;;;7.50;99.90;;;;;;4148212;28;20465;-75
2021/10/30 01:33:54;;;;;;;40.60;22.17;;;7.50;99.90;;;;;;4149117;28;20898;-75
2021/10/30 01:35:55;;;;;;;40.20;21.17;;;7.50;99.90;;;;;;4147038;28;20504;-76
2021/10/30 01:38:00;;;;;;;37.23;21.37;;;7.50;99.90;;;;;;4142750;28;20522;-76
2021/10/30 01:40:01;;;;;;;40.30;21.37;;;7.50;99.90;;;;;;4139655;28;20848;-76
2021/10/30 01:42:04;;;;;;;40.53;21.73;;;7.50;99.90;;;;;;4136395;28;20536;-76
2021/10/30 01:44:07;;;;;;;40.50;21.97;;;7.40;99.90;;;;;;4148847;28;20458;-76
2021/10/30 01:46:09;;;;;;;40.50;21.57;;;7.40;99.90;;;;;;4148043;28;20458;-76
2021/10/30 01:48:12;;;;;;;39.07;21.77;;;7.40;99.90;;;;;;4142530;28;20486;-75
2021/10/30 01:50:14;;;;;;;38.93;21.30;;;7.40;99.90;;;;;;4131801;28;20466;-76
2021/10/30 01:52:15;;;;;;;40.83;21.00;;;7.40;99.90;;;;;;4138679;28;20528;-76
2021/10/30 01:54:19;;;;;;;36.63;20.33;;;7.30;99.90;;;;;;4142040;28;20483;-77
2021/10/30 01:56:21;;;;;;;42.13;22.10;;;7.30;99.90;;;;;;4140647;28;21283;-75
2021/10/30 01:58:22;;;;;;;37.20;20.57;;;7.30;99.90;;;;;;4115412;28;20500;-76
2021/10/30 02:00:24;;;;;;;36.57;20.90;;;7.30;99.90;;;;;;4118893;28;21199;-76
2021/10/30 02:02:26;;;;;;;39.87;20.83;;;7.30;99.90;;;;;;4141161;28;20924;-76
2021/10/30 02:04:28;;;;;;;37.77;21.73;;;7.30;99.90;;;;;;4146737;28;20461;-76
2021/10/30 02:06:30;;;;;;;36.27;21.00;;;7.30;99.90;;;;;;4128495;28;20475;-76
2021/10/30 02:08:32;;;;;;;37.73;20.90;;;7.20;99.90;;;;;;4116861;28;20948;-77
2021/10/30 02:10:35;;;;;;;41.80;21.97;;;7.20;99.90;;;;;;4121043;28;20960;-76
2021/10/30 02:12:37;;;;;;;38.40;21.40;;;7.20;99.90;;;;;;4141126;28;20497;-75
2021/10/30 02:14:38;;;;;;;38.57;20.43;;;7.20;99.90;;;;;;4142402;28;20975;-74
2021/10/30 02:16:40;;;;;;;38.67;21.07;;;7.20;99.90;;;;;;4120452;28;20510;-75
2021/10/30 02:18:42;;;;;;;37.57;21.43;;;7.20;99.90;;;;;;4131667;28;20466;-75
2021/10/30 02:20:44;;;;;;;37.40;20.83;;;7.20;99.90;;;;;;4136391;28;20478;-75
2021/10/30 02:22:51;;;;;;;37.00;20.43;;;7.20;99.90;;;;;;4136640;28;20993;-75
2021/10/30 02:24:53;;;;;;;41.47;21.03;;;7.20;99.90;;;;;;4131877;28;20451;-75
2021/10/30 02:26:56;;;;;;;36.97;21.23;;;7.10;99.90;;;;;;4136973;28;20947;-75
2021/10/30 02:28:58;;;;;;;38.30;21.13;;;7.10;99.90;;;;;;4132976;28;20506;-75
2021/10/30 02:30:59;;;;;;;40.87;21.00;;;7.10;99.90;;;;;;4129281;28;20522;-75
2021/10/30 02:33:01;;;;;;;36.13;19.70;;;7.10;99.90;;;;;;4115118;28;20534;-76
2021/10/30 02:35:03;;;;;;;38.37;21.30;;;7.10;99.90;;;;;;4115903;28;20463;-73
2021/10/30 02:37:05;;;;;;;38.57;20.87;;;7.10;99.90;;;;;;4139195;28;20883;-75
2021/10/30 02:39:06;;;;;;;35.77;20.13;;;7.10;99.90;;;;;;4142648;28;20516;-76
2021/10/30 02:41:08;;;;;;;37.17;20.40;;;7.10;99.90;;;;;;4127135;28;20474;-76
2021/10/30 02:43:11;;;;;;;38.67;20.23;;;7.00;99.90;;;;;;4131657;28;20541;-75
2021/10/30 02:45:13;;;;;;;36.70;20.90;;;7.00;99.90;;;;;;4130640;28;20474;-75
2021/10/30 02:47:15;;;;;;;38.30;20.40;;;7.00;99.90;;;;;;4136232;28;20842;-75
2021/10/30 02:49:16;;;;;;;34.53;18.97;;;7.00;99.90;;;;;;4136408;28;20473;-76
2021/10/30 02:51:18;;;;;;;37.23;20.00;;;7.00;99.90;;;;;;4140339;28;20621;-75
2021/10/30 02:53:20;;;;;;;37.17;19.97;;;7.00;99.90;;;;;;4135766;28;20489;-75
2021/10/30 02:55:22;;;;;;;37.23;19.80;;;7.00;99.90;;;;;;4130664;28;20460;-76
2021/10/30 02:57:23;;;;;;;37.43;20.27;;;7.00;99.90;;;;;;4128052;28;20528;-76
2021/10/30 02:59:27;;;;;;;39.27;20.23;;;7.00;99.90;;;;;;4132576;28;20457;-75
2021/10/30 03:01:28;;;;;;;36.30;19.70;;;6.90;99.90;;;;;;4136523;28;20456;-76
2021/10/30 03:03:30;;;;;;;39.03;20.17;;;7.00;99.90;;;;;;4139423;28;20480;-76
2021/10/30 03:05:32;;;;;;;34.70;19.27;;;7.00;99.90;;;;;;4146718;28;20456;-75
2021/10/30 03:07:33;;;;;;;38.83;20.33;;;7.00;99.90;;;;;;4126042;28;20475;-76
2021/10/30 03:09:35;;;;;;;37.33;19.57;;;7.00;99.90;;;;;;4134851;28;20473;-75
2021/10/30 03:11:37;;;;;;;37.37;20.03;;;6.90;99.90;;;;;;4147783;28;20462;-76
2021/10/30 03:13:38;;;;;;;36.77;20.17;;;6.90;99.90;;;;;;4147262;28;20856;-75
2021/10/30 03:15:41;;;;;;;34.20;19.87;;;6.90;99.90;;;;;;4137426;28;20552;-75
2021/10/30 03:17:43;;;;;;;34.80;20.00;;;6.90;99.90;;;;;;4130693;28;20472;-76
2021/10/30 03:19:45;;;;;;;35.87;19.57;;;6.90;99.90;;;;;;4133256;28;20487;-75
2021/10/30 03:21:46;;;;;;;35.00;18.73;;;6.90;99.90;;;;;;4131423;28;20481;-76
2021/10/30 03:23:48;;;;;;;33.97;19.10;;;6.90;99.90;;;;;;4131386;28;20466;-75
2021/10/30 03:25:50;;;;;;;34.43;18.10;;;6.90;99.90;;;;;;4129634;28;20872;-75
2021/10/30 03:27:51;;;;;;;35.73;19.30;;;6.90;99.90;;;;;;4133267;28;20512;-76
2021/10/30 03:29:53;;;;;;;34.70;20.00;;;6.90;99.90;;;;;;4131030;28;20470;-75
2021/10/30 03:31:56;;;;;;;34.10;18.57;;;6.90;99.90;;;;;;4136634;28;20455;-76
2021/10/30 03:33:58;;;;;;;35.17;19.13;;;6.80;99.90;;;;;;4129844;28;20551;-77
2021/10/30 03:35:59;;;;;;;32.70;17.93;;;6.80;99.90;;;;;;4131059;28;20913;-75
2021/10/30 03:38:01;;;;;;;37.30;19.67;;;6.80;99.90;;;;;;4132503;28;20468;-75
2021/10/30 03:40:05;;;;;;;35.40;18.83;;;6.80;99.90;;;;;;4130662;28;20462;-76
2021/10/30 03:42:07;;;;;;;33.27;18.73;;;6.80;99.90;;;;;;4122460;28;20480;-76
2021/10/30 03:44:09;;;;;;;37.67;19.60;;;6.80;99.90;;;;;;4136323;28;20476;-76
2021/10/30 03:46:11;;;;;;;35.00;19.30;;;6.80;99.90;;;;;;4133395;28;20521;-76
2021/10/30 03:48:17;;;;;;;35.13;19.40;;;6.80;99.90;;;;;;4131046;28;20464;-76
2021/10/30 03:50:19;;;;;;;34.30;19.67;;;6.80;99.90;;;;;;4130342;28;20576;-75
2021/10/30 03:52:20;;;;;;;35.00;19.40;;;6.80;99.90;;;;;;4131004;28;20484;-76
2021/10/30 03:54:22;;;;;;;33.33;19.13;;;6.80;99.90;;;;;;4128036;28;20476;-75
2021/10/30 03:56:24;;;;;;;35.03;19.03;;;6.80;99.90;;;;;;4116655;28;20486;-75
2021/10/30 03:58:26;;;;;;;31.87;18.73;;;6.80;99.90;;;;;;4124175;28;20464;-74
2021/10/30 04:00:28;;;;;;;32.57;19.27;;;6.80;99.90;;;;;;4131949;28;20482;-75
2021/10/30 04:02:30;;;;;;;32.33;17.60;;;6.80;99.90;;;;;;4130927;28;20504;-74
2021/10/30 04:04:33;;;;;;;33.57;18.40;;;6.80;99.90;;;;;;4131802;28;20944;-75
2021/10/30 04:06:35;;;;;;;38.27;19.00;;;6.80;99.90;;;;;;4130700;28;20466;-76
2021/10/30 04:08:37;;;;;;;34.37;19.30;;;6.80;99.90;;;;;;4135014;28;20523;-75
2021/10/30 04:10:39;;;;;;;35.33;18.87;;;6.80;99.90;;;;;;4146817;28;20528;-76
2021/10/30 04:12:41;;;;;;;35.87;19.43;;;6.70;99.90;;;;;;4133868;28;20519;-76
2021/10/30 04:14:42;;;;;;;33.13;18.83;;;6.70;99.90;;;;;;4147237;28;20453;-76
2021/10/30 04:16:44;;;;;;;33.57;18.47;;;6.70;99.90;;;;;;4137027;28;20526;-75
2021/10/30 04:18:46;;;;;;;33.37;18.87;;;6.70;99.90;;;;;;4116920;28;20526;-76
2021/10/30 04:20:49;;;;;;;33.90;18.40;;;6.70;99.90;;;;;;4129086;28;21022;-76
2021/10/30 04:22:51;;;;;;;35.03;19.23;;;6.70;99.90;;;;;;4146594;28;20546;-77
2021/10/30 04:24:53;;;;;;;31.47;18.47;;;6.70;99.90;;;;;;4139741;28;20488;-76
2021/10/30 04:26:54;;;;;;;30.73;17.27;;;6.70;99.90;;;;;;4127390;28;20565;-75
2021/10/30 04:28:56;;;;;;;33.00;18.67;;;6.60;99.90;;;;;;4134168;28;20458;-76
2021/10/30 04:31:02;;;;;;;31.67;18.80;;;6.70;99.90;;;;;;4131088;28;20477;-76
2021/10/30 04:33:05;;;;;;;33.60;17.87;;;6.70;99.90;;;;;;4131265;28;20478;-76
2021/10/30 04:35:09;;;;;;;33.07;18.03;;;6.70;99.90;;;;;;4123370;28;20980;-75
2021/10/30 04:37:16;;;;;;;31.13;17.70;;;6.70;99.90;;;;;;4129011;28;20585;-75
2021/10/30 04:39:19;;;;;;;32.60;17.60;;;6.60;99.90;;;;;;4130370;28;20473;-75
2021/10/30 04:41:22;;;;;;;32.30;17.53;;;6.60;99.90;;;;;;4128811;28;20477;-75
2021/10/30 04:43:24;;;;;;;31.17;17.53;;;6.60;99.90;;;;;;4113855;28;21002;-77
2021/10/30 04:45:25;;;;;;;33.23;17.53;;;6.60;99.90;;;;;;4121207;28;20472;-75
2021/10/30 04:47:27;;;;;;;30.10;18.00;;;6.60;99.90;;;;;;4133521;28;20477;-75
2021/10/30 04:49:29;;;;;;;32.83;17.67;;;6.50;99.90;;;;;;4136126;28;20462;-76
2021/10/30 04:51:31;;;;;;;32.90;18.03;;;6.60;99.90;;;;;;4133575;28;20517;-76
2021/10/30 04:53:35;;;;;;;30.83;18.30;;;6.50;99.90;;;;;;4133529;28;20480;-77
2021/10/30 04:55:37;;;;;;;30.30;17.53;;;6.50;99.90;;;;;;4133175;28;20549;-73
2021/10/30 04:57:38;;;;;;;32.63;17.87;;;6.50;99.90;;;;;;4129626;28;20562;-75
2021/10/30 04:59:40;;;;;;;29.13;17.70;;;6.50;99.90;;;;;;4115701;28;20512;-76
2021/10/30 05:01:42;;;;;;;32.90;17.97;;;6.50;99.90;;;;;;4143982;28;20483;-75
2021/10/30 05:03:44;;;;;;;32.87;18.30;;;6.50;99.90;;;;;;4141720;28;20493;-75
2021/10/30 05:05:46;;;;;;;35.33;18.20;;;6.50;99.90;;;;;;4131050;28;20462;-74
2021/10/30 05:07:48;;;;;;;33.03;18.40;;;6.40;99.90;;;;;;4141552;28;20455;-74
2021/10/30 05:09:51;;;;;;;32.63;17.73;;;6.40;99.90;;;;;;4132709;28;20467;-76
2021/10/30 05:11:53;;;;;;;33.67;18.73;;;6.40;99.90;;;;;;4143572;28;20480;-74
2021/10/30 05:13:54;;;;;;;34.37;18.87;;;6.40;99.90;;;;;;4143021;28;20498;-74
2021/10/30 05:15:56;;;;;;;31.27;17.77;;;6.40;99.90;;;;;;4132338;28;20455;-74
2021/10/30 05:17:58;;;;;;;31.87;18.30;;;6.40;99.90;;;;;;4133605;28;20493;-75
2021/10/30 05:20:00;;;;;;;32.13;18.57;;;6.40;99.90;;;;;;4134336;28;20470;-74
2021/10/30 05:22:01;;;;;;;33.97;18.97;;;6.40;99.90;;;;;;4132954;28;20468;-74
2021/10/30 05:24:03;;;;;;;32.70;18.33;;;6.30;99.90;;;;;;4133067;28;20834;-74
2021/10/30 05:26:07;;;;;;;33.97;18.37;;;6.30;99.90;;;;;;4126626;28;20492;-74
2021/10/30 05:28:08;;;;;;;33.53;17.90;;;6.30;99.90;;;;;;4136781;28;21003;-74
2021/10/30 05:30:10;;;;;;;35.70;20.13;;;6.30;99.90;;;;;;4133329;28;20492;-76
2021/10/30 05:32:12;;;;;;;36.70;19.53;;;6.30;99.90;;;;;;4132280;28;20532;-75
2021/10/30 05:34:14;;;;;;;36.93;19.77;;;6.30;99.90;;;;;;4133239;28;20457;-74
2021/10/30 05:36:16;;;;;;;36.27;19.80;;;6.30;99.90;;;;;;4133162;28;20479;-74
2021/10/30 05:38:18;;;;;;;33.67;18.53;;;6.30;99.90;;;;;;4140695;28;20461;-76
2021/10/30 05:40:20;;;;;;;36.77;20.97;;;6.20;99.90;;;;;;4148105;28;20529;-74
2021/10/30 05:42:23;;;;;;;44.00;21.10;;;6.20;99.90;;;;;;4148770;28;21063;-74
2021/10/30 05:44:25;;;;;;;37.60;20.40;;;6.20;99.90;;;;;;4149449;28;20452;-75
2021/10/30 05:46:27;;;;;;;39.73;20.47;;;6.20;99.90;;;;;;4141057;28;20478;-76
2021/10/30 05:48:28;;;;;;;40.27;21.60;;;6.20;99.90;;;;;;4141901;28;20959;-74
2021/10/30 05:50:30;;;;;;;37.47;19.93;;;6.10;99.90;;;;;;4140343;28;20473;-74
2021/10/30 05:52:32;;;;;;;37.57;21.30;;;6.10;99.90;;;;;;4132358;28;20565;-74
2021/10/30 05:54:34;;;;;;;38.53;20.87;;;6.10;99.90;;;;;;4133070;28;20460;-74
2021/10/30 05:56:35;;;;;;;37.53;21.03;;;6.10;99.90;;;;;;4132182;28;20460;-74
2021/10/30 05:58:39;;;;;;;41.47;21.43;;;6.10;99.90;;;;;;4129354;28;20456;-75
2021/10/30 06:00:40;;;;;;;41.20;21.50;;;6.10;99.90;;;;;;4147299;28;20502;-74
2021/10/30 06:02:42;;;;;;;40.67;21.77;;;6.00;99.90;;;;;;4132383;28;20986;-74
2021/10/30 06:04:45;;;;;;;38.90;21.07;;;6.00;99.90;;;;;;4131832;28;20463;-74
2021/10/30 06:06:47;;;;;;;38.77;21.43;;;6.00;99.90;;;;;;4137850;28;20474;-74
2021/10/30 06:08:49;;;;;;;38.37;21.10;;;6.00;99.90;;;;;;4144444;28;20855;-74
2021/10/30 06:10:51;;;;;;;38.17;21.03;;;5.90;99.90;;;;;;4147632;28;20458;-74
2021/10/30 06:12:53;;;;;;;40.17;21.77;;;5.90;99.90;;;;;;4140012;28;20714;-74
2021/10/30 06:14:56;;;;;;;41.13;21.83;;;5.90;99.90;;;;;;4128931;28;20483;-74
2021/10/30 06:17:00;;;;;;;40.80;20.47;;;5.90;99.90;;;;;;4131889;28;20499;-75
2021/10/30 06:19:02;;;;;;;38.60;20.80;;;5.90;99.90;;;;;;4131398;28;20472;-74
2021/10/30 06:21:03;;;;;;;41.47;21.47;;;5.90;99.90;;;;;;4133179;28;20511;-74
2021/10/30 06:23:05;;;;;;;39.93;21.13;;;5.90;99.90;;;;;;4135394;28;20475;-74
2021/10/30 06:25:07;;;;;;;39.07;21.37;;;5.90;99.90;;;;;;4133395;28;20464;-74
2021/10/30 06:27:09;;;;;;;38.63;21.73;;;5.90;99.90;;;;;;4139962;28;20831;-76
2021/10/30 06:29:11;;;;;;;39.77;21.40;;;5.90;99.90;;;;;;4143037;28;20451;-74
2021/10/30 06:31:15;;;;;;;40.70;20.83;;;5.90;99.90;;;;;;4148500;28;21006;-74
2021/10/30 06:33:16;;;;;;;37.43;21.30;;;5.90;99.90;;;;;;4139750;28;20585;-75
2021/10/30 06:35:18;;;;;;;40.67;20.57;;;5.90;99.90;;;;;;4139263;28;20879;-75
2021/10/30 06:37:20;;;;;;;39.80;20.83;;;5.90;99.90;;;;;;4135321;28;20498;-74
2021/10/30 06:39:21;;;;;;;38.60;20.50;;;5.90;99.90;;;;;;4146301;28;20829;-74
2021/10/30 06:41:23;;;;;;;38.73;20.90;;;5.90;99.90;;;;;;4132075;28;20956;-73
2021/10/30 06:43:25;;;;;;;37.00;20.60;;;5.90;99.90;;;;;;4146880;28;20502;-74
2021/10/30 06:45:27;;;;;;;44.43;21.67;;;5.90;99.90;;;;;;4145787;28;20463;-74
2021/10/30 06:47:31;;;;;;;39.30;21.33;;;5.90;99.90;;;;;;4131766;28;20515;-75
2021/10/30 06:49:32;;;;;;;42.83;21.50;;;5.90;99.90;;;;;;4131864;28;20492;-73
2021/10/30 06:51:34;;;;;;;42.77;21.20;;;5.90;99.90;;;;;;4129896;28;20867;-73
2021/10/30 06:53:36;;;;;;;38.53;20.33;;;5.90;99.90;;;;;;4134937;28;20484;-73
2021/10/30 06:55:38;;;;;;;38.50;21.33;;;5.90;99.90;;;;;;4137427;28;20455;-73
2021/10/30 06:57:41;;;;;;;36.57;20.23;;;5.90;99.90;;;;;;4139922;28;20888;-74
2021/10/30 06:59:42;;;;;;;39.00;20.57;;;5.90;99.90;;;;;;4145134;28;20455;-74
2021/10/30 07:01:44;;;;;;;35.47;19.37;;;6.00;99.90;;;;;;4148171;28;20457;-73
2021/10/30 07:03:47;;;;;;;37.93;20.10;;;6.00;99.90;;;;;;4144436;28;20536;-74
2021/10/30 07:05:49;;;;;;;34.60;19.10;;;6.00;99.90;;;;;;4127785;28;20858;-75
2021/10/30 07:07:51;;;;;;;36.47;19.70;;;6.00;99.90;;;;;;4125269;28;20474;-74
2021/10/30 07:09:58;;;;;;;35.23;19.87;;;6.00;99.90;;;;;;4129690;28;21021;-74
2021/10/30 07:12:00;;;;;;;36.13;19.10;;;6.00;99.90;;;;;;4139171;28;20542;-74
2021/10/30 07:14:02;;;;;;;37.10;19.73;;;6.00;99.90;;;;;;4139611;28;20457;-74
2021/10/30 07:16:04;;;;;;;36.10;20.07;;;6.00;99.90;;;;;;4130066;28;20473;-74
2021/10/30 07:18:05;;;;;;;38.70;20.30;;;6.00;99.90;;;;;;4130427;28;20498;-74
2021/10/30 07:20:10;;;;;;;42.37;21.63;;;6.00;99.90;;;;;;4137184;28;20476;-75
2021/10/30 07:22:11;;;;;;;39.93;21.23;;;6.10;99.90;;;;;;4135196;28;20470;-75
2021/10/30 07:24:13;;;;;;;35.13;19.50;;;6.10;99.90;;;;;;4130789;28;20479;-75
2021/10/30 07:26:15;;;;;;;39.13;20.47;;;6.10;99.90;;;;;;4129775;28;20481;-74
2021/10/30 07:28:16;;;;;;;40.77;19.70;;;6.10;99.90;;;;;;4139722;28;20951;-74
2021/10/30 07:30:18;;;;;;;38.90;19.90;;;6.10;99.90;;;;;;4146873;28;21002;-74
2021/10/30 07:32:20;;;;;;;35.90;19.23;;;6.10;99.90;;;;;;4145102;28;20481;-76
2021/10/30 07:34:22;;;;;;;37.57;19.77;;;6.20;99.90;;;;;;4130993;28;20471;-74
2021/10/30 07:36:25;;;;;;;36.90;19.23;;;6.20;99.90;;;;;;4135791;28;20462;-75
2021/10/30 07:38:27;;;;;;;36.07;19.93;;;6.20;99.90;;;;;;4146668;28;20499;-74
2021/10/30 07:40:29;;;;;;;32.77;18.60;;;6.20;99.90;;;;;;4130498;28;20475;-74
2021/10/30 07:42:31;;;;;;;33.17;19.10;;;6.20;99.90;;;;;;4129950;28;20532;-74
2021/10/30 07:44:33;;;;;;;31.30;17.60;;;6.30;99.90;;;;;;4129334;28;20676;-74
2021/10/30 07:46:36;;;;;;;34.07;18.17;;;6.30;99.90;;;;;;4128636;28;20468;-77
2021/10/30 07:48:41;;;;;;;35.80;17.93;;;6.40;99.90;;;;;;4127491;28;20469;-78
2021/10/30 07:50:42;;;;;;;34.80;18.73;;;6.30;99.90;;;;;;4124659;28;20471;-76
2021/10/30 07:52:45;;;;;;;33.37;18.70;;;6.30;99.90;;;;;;4130938;28;20539;-76
2021/10/30 07:54:47;;;;;;;32.03;17.73;;;6.30;99.90;;;;;;4129985;28;20527;-77
2021/10/30 07:56:49;;;;;;;33.90;18.30;;;6.40;99.90;;;;;;4129497;28;20461;-76
2021/10/30 07:58:50;;;;;;;34.07;19.00;;;6.40;99.90;;;;;;4126764;28;20935;-75
2021/10/30 08:00:52;;;;;;;36.23;18.33;;;6.40;99.90;;;;;;4130524;28;20479;-80
2021/10/30 08:02:54;;;;;;;34.80;18.20;;;6.50;99.90;;;;;;4132985;28;20915;-74
2021/10/30 08:04:55;;;;;;;36.13;18.23;;;6.50;99.90;;;;;;4136776;28;20512;-75
2021/10/30 08:06:58;;;;;;;31.23;17.07;;;6.50;99.90;;;;;;4127214;28;20532;-77
2021/10/30 08:09:01;;;;;;;31.73;18.00;;;6.50;99.90;;;;;;4130672;28;20968;-77
2021/10/30 08:11:03;;;;;;;32.10;18.20;;;6.60;99.90;;;;;;4130738;28;20463;-76
2021/10/30 08:13:09;;;;;;;32.13;18.03;;;6.60;99.90;;;;;;4131861;28;20568;-75
2021/10/30 08:15:10;;;;;;;29.90;17.33;;;6.60;99.90;;;;;;4130957;28;20466;-74
2021/10/30 08:17:12;;;;;;;32.83;17.93;;;6.70;99.90;;;;;;4134058;28;20477;-75
2021/10/30 08:19:14;;;;;;;32.93;18.10;;;6.70;99.90;;;;;;4138558;28;20847;-74
2021/10/30 08:21:16;;;;;;;32.37;17.83;;;6.80;99.90;;;;;;4133907;28;20501;-73
2021/10/30 08:23:18;;;;;;;32.93;17.57;;;6.80;99.90;;;;;;4132343;28;20695;-75
2021/10/30 08:25:21;;;;;;;29.00;16.33;;;6.80;99.90;;;;;;4141871;28;20517;-75
2021/10/30 08:27:22;;;;;;;30.53;17.27;;;6.90;99.90;;;;;;4145803;28;20939;-76
2021/10/30 08:29:24;;;;;;;29.90;16.50;;;6.90;99.90;;;;;;4134568;28;20471;-76
2021/10/30 08:31:26;;;;;;;30.13;17.33;;;7.00;99.90;;;;;;4132843;28;20952;-76
2021/10/30 08:33:28;;;;;;;31.20;17.23;;;7.00;99.90;;;;;;4134266;28;20618;-76
2021/10/30 08:35:30;;;;;;;29.97;17.53;;;7.50;99.90;;;;;;4135616;28;20500;-77
2021/10/30 08:37:32;;;;;;;28.47;16.37;;;7.10;99.90;;;;;;4129121;28;20456;-76
2021/10/30 08:39:34;;;;;;;30.07;17.50;;;7.10;99.90;;;;;;4129220;28;20462;-77
2021/10/30 08:41:38;;;;;;;31.53;17.67;;;7.20;99.90;;;;;;4132569;28;20831;-78
2021/10/30 08:43:40;;;;;;;28.23;16.23;;;7.20;99.90;;;;;;4133629;28;20470;-77
2021/10/30 08:45:43;;;;;;;30.77;16.17;;;7.20;99.90;;;;;;4130855;28;20471;-78
2021/10/30 08:47:47;;;;;;;28.07;16.57;;;7.30;99.90;;;;;;4124645;28;20522;-75
2021/10/30 08:49:48;;;;;;;28.20;17.03;;;7.30;99.90;;;;;;4129969;28;20475;-75
2021/10/30 08:51:51;;;;;;;32.50;18.20;;;7.30;99.90;;;;;;4125945;28;20471;-74
2021/10/30 08:53:53;;;;;;;28.53;16.97;;;7.40;99.90;;;;;;4127856;28;20580;-72
2021/10/30 08:55:54;;;;;;;31.80;17.20;;;7.50;99.90;;;;;;4126977;28;20502;-75
2021/10/30 08:58:05;;;;;;;30.57;16.70;;;7.50;99.90;;;;;;4133144;28;20491;-77
2021/10/30 09:00:22;;;;;;;26.07;15.50;;;7.60;99.90;;;;;;4129361;28;20546;-73
2021/10/30 09:02:27;;;;;;;29.20;16.77;;;7.60;99.90;;;;;;4128375;28;20490;-74
2021/10/30 09:04:28;;;;;;;28.97;16.13;;;7.60;99.90;;;;;;4127501;28;20456;-76
2021/10/30 09:06:39;;;;;;;27.40;15.50;;;7.70;99.90;;;;;;4126238;28;20959;-72
2021/10/30 09:08:40;;;;;;;25.27;15.83;;;7.80;99.90;;;;;;4129192;28;20461;-73
2021/10/30 09:10:44;;;;;;;27.60;15.23;;;7.80;99.90;;;;;;4124831;28;20540;-72
2021/10/30 09:12:53;;;;;;;28.53;16.57;;;7.90;99.90;;;;;;4127783;28;20835;-72
2021/10/30 09:14:57;;;;;;;23.93;14.87;;;7.90;99.90;;;;;;4122313;28;20804;-72
2021/10/30 09:17:15;;;;;;;26.17;15.70;;;8.00;99.90;;;;;;4119909;28;20475;-73
2021/10/30 09:19:29;;;;;;;26.67;15.43;;;8.00;99.90;;;;;;4126534;28;20488;-72
2021/10/30 09:21:32;;;;;;;27.60;15.77;;;8.10;99.90;;;;;;4128020;28;20456;-72
2021/10/30 09:23:36;;;;;;;26.30;15.40;;;8.10;99.90;;;;;;4130367;28;20484;-72
2021/10/30 09:25:51;;;;;;;25.70;15.70;;;8.20;99.90;;;;;;4128399;28;20460;-75
2021/10/30 09:27:55;;;;;;;27.13;15.80;;;8.30;99.90;;;;;;4131550;28;20509;-72
2021/10/30 09:29:58;;;;;;;28.10;16.17;;;8.30;99.90;;;;;;4121304;28;20492;-73
2021/10/30 09:32:11;;;;;;;27.63;15.80;;;8.40;99.90;;;;;;4128225;28;20275;-76
2021/10/30 09:34:13;;;;;;;25.07;14.57;;;8.40;99.90;;;;;;4120769;28;20621;-74
2021/10/30 09:36:15;;;;;;;26.60;15.13;;;8.50;99.90;;;;;;4124177;28;20458;-73
2021/10/30 09:38:27;;;;;;;25.50;14.77;;;8.60;99.90;;;;;;4135498;28;20227;-75
2021/10/30 09:40:31;;;;;;;25.40;15.17;;;8.70;99.90;;;;;;4133736;28;20270;-72
2021/10/30 09:42:33;;;;;;;24.23;15.37;;;8.70;99.90;;;;;;4138994;28;20267;-72
2021/10/30 09:44:34;;;;;;;26.40;15.17;;;8.80;99.90;;;;;;4136532;28;20510;-73
2021/10/30 09:46:51;;;;;;;27.27;15.20;;;8.90;99.90;;;;;;4138613;28;20759;-73
2021/10/30 09:48:54;;;;;;;26.80;14.90;;;9.00;99.90;;;;;;4131701;28;20200;-73
2021/10/30 09:50:58;;;;;;;24.27;15.00;;;9.00;99.90;;;;;;4128553;28;20255;-75
2021/10/30 09:53:22;;;;;;;23.30;14.27;;;9.10;99.90;;;;;;4128782;28;20227;-75
2021/10/30 09:55:25;;;;;;;24.60;15.23;;;9.20;99.90;;;;;;4132924;28;20624;-80
2021/10/30 09:57:28;;;;;;;23.37;14.57;;;9.20;99.90;;;;;;4127396;28;20208;-74
2021/10/30 09:59:33;;;;;;;22.77;14.30;;;9.30;99.90;;;;;;4132517;28;20232;-75
2021/10/30 10:01:38;;;;;;;23.43;14.33;;;9.40;99.90;;;;;;4132967;28;20233;-74
2021/10/30 10:03:41;;;;;;;25.43;14.30;;;9.50;99.90;;;;;;4130518;28;20243;-76
2021/10/30 10:05:43;;;;;;;21.83;13.37;;;9.50;99.90;;;;;;4133248;28;20213;-79
2021/10/30 10:07:44;;;;;;;21.87;13.77;;;9.60;99.90;;;;;;4137319;28;20556;-76
2021/10/30 10:09:49;;;;;;;22.00;14.03;;;9.70;99.90;;;;;;4135794;28;20211;-77
2021/10/30 10:11:52;;;;;;;22.43;13.97;;;9.90;99.90;;;;;;4136897;28;20214;-79
2021/10/30 10:13:54;;;;;;;25.07;15.03;;;10.00;99.90;;;;;;4134786;28;20225;-78
2021/10/30 10:15:56;;;;;;;23.70;14.17;;;10.20;99.90;;;;;;4131826;28;20242;-79
2021/10/30 10:17:59;;;;;;;25.33;15.17;;;10.40;99.90;;;;;;4136963;28;20214;-79
2021/10/30 10:20:04;;;;;;;20.27;13.77;;;10.50;99.90;;;;;;4128724;28;20223;-79
2021/10/30 10:22:06;;;;;;;21.50;14.00;;;10.70;99.90;;;;;;4127426;28;20587;-79
2021/10/30 10:24:13;;;;;;;23.77;14.13;;;10.80;99.90;;;;;;4131972;28;20218;-76
2021/10/30 10:26:16;;;;;;;23.13;14.60;;;10.90;99.90;;;;;;4132111;28;20222;-79
2021/10/30 10:28:23;;;;;;;22.27;13.37;;;11.00;99.90;;;;;;4132259;28;20737;-77